Terminal Aerodrome Forecast
Issued by NWS Cleveland, OH

Home | Current Version | Previous Version | Graphics & Text | Print | Product List | Glossary On
Versions: 1 2 3 4 5 6 7 8 9 10 11 12 13 14 15 16
000
FTUS41 KCLE 202330
TAFYNG
TAF
KYNG 202330Z 2100/2124 18010KT P6SM SCT100 BKN200 WS020/21040KT
     FM211400 24014G22KT 5SM -SHRA OVC025
     FM211700 29014G22KT 3SM -SHRA OVC007
     FM212100 34012KT P6SM VCSH SCT012 OVC020=

USA.gov is the U.S. government's official web portal to all federal, state and local government web resources and services.